Godman Army Air Field
KFTK : now visible

Airfield :











YOU CAN JOIN US ON...

 
LOGIN :

Register | Disclaimer

   EN    FR    IT 

 









Legend :    VFR   Marginal VFR   IFR   Intensive IFR   Very Intensive IFR
Visi :
Ceiling :
>= 8 km
>= 3000ft
5 to 8 km
1000 to 3000 ft
1500m to 5 km
500 to 1000 ft
800 to 1500m
200 to 500 ft
< 800m
< 200 ft
Symbols :   Thunderstorms  Fog  Heavy snow  Heavy precipitations  Wind > 20 kt






- Airport Elevation : 756 ft


KFTK - Godman Army Air Field

CURRENT METAR :
  • 130948Z AUTO 00000KT 2 1/2SM BR CLR 20/20 A3014 RMK AO2 VIS 1 1/2V2 1/2 SLP202 $

EXPIRED METARs :
  • 130955Z AUTO 00000KT 3SM BR CLR 20/20 A3015 RMK AO2 SLP205 T02040199 $
  • 130935Z AUTO 00000KT 7/8SM R18/3500VP6000FT BR CLR 20/20 A3014 RMK AO2 VIS 7/8V2 3/4 SLP202 $
  • 130903Z AUTO 00000KT 4SM BR CLR 21/20 A3014 RMK AO2 SLP201 $
  • 130855Z AUTO 00000KT 2 3/4SM BR CLR 20/20 A3014 RMK AO2 VIS 5/8V2 3/4 SLP201 T02010196 55001 $
  • 130840Z AUTO 00000KT 3/4SM R18/2600VP6000FT BR CLR 21/20 A3013 RMK AO2 VIS 3/4V1 5/8 SLP197 $
  • 130755Z AUTO 00000KT 6SM BR CLR 21/21 A3013 RMK AO2 SLP197 T02110207 $
  • 130811Z AUTO 00000KT 3SM BR CLR 21/21 A3013 RMK AO2 SLP197 $
  • 130745Z AUTO 00000KT 2 3/4SM BR CLR 21/21 A3013 RMK AO2 VIS 7/8V2 3/4 SLP197 $
  • 130740Z AUTO 00000KT 7/8SM R18/2000VP6000FT BR CLR 21/21 A3013 RMK AO2 VIS 7/8V5 SLP198 $
  • 130655Z AUTO 00000KT 4SM BR CLR 21/21 A3013 RMK AO2 SLP198 T02100206 $
  • 130555Z AUTO 00000KT 10SM CLR 22/21 A3014 RMK AO2 SLP200 T02160211 10288 20216 51007 $

TAF TAF KFTK
Valid from the 12 at 19:00 until the 14 at 01:00 UTC


121900Z 1219/1401 24010KT 9999 VCTS SCT040CB SCT075 BKN110 BKN250 QNH3002INS
BECMG 1300/1301 28005KT 9999 NSW SCT250 QNH3005INS TX31/1220Z TN20/1311Z LAST NO AMDS AFT 1303 NEXT 1511
KZID FIR / North America



MET'MAP, your aeronautical weather chart ! - Copyright ORBIFLY December 2007 - Disclaimer

ORBIFLY MET'MAP TEAM :

Programming & Development : Alexandra Zaïnal
Original concept : Baudouin d'Aumeries
Technical & hardware support : Manuel Goepfert
Assistance : Marc-Olivier Méhu




SOURCES & CREDITS :

   NOAA       Earth
Advisory